Time;durP1;ratioP1;P1;durP2;ratioP2;P2;SDS_P1;SDS_P2;PMS_P1;PMS_P2;Temp;Humidity;BMP_temperature;BMP_pressure;BME280_temperature;BME280_humidity;BME280_pressure;Samples;Min_cycle;Max_cycle;Signal;HPM_P1;HPM_P2
2021/07/27 00:01:14;;;;;;;2.72;2.28;;;;;;;;;;3576533;40;20477;-69
2021/07/27 00:03:40;;;;;;;3.10;2.35;;;;;;;;;;3567447;40;20725;-70
2021/07/27 00:06:07;;;;;;;3.37;2.47;;;;;;;;;;3576745;40;20829;-69
2021/07/27 00:08:35;;;;;;;2.67;2.30;;;;;;;;;;3568153;40;20629;-70
2021/07/27 00:11:01;;;;;;;4.25;2.55;;;;;;;;;;3576744;40;20431;-70
2021/07/27 00:13:27;;;;;;;3.65;2.70;;;;;;;;;;3567536;40;20388;-70
2021/07/27 00:15:55;;;;;;;3.35;2.72;;;;;;;;;;3567278;40;20383;-69
2021/07/27 00:18:21;;;;;;;2.80;2.35;;;;;;;;;;3576671;40;20443;-70
2021/07/27 00:20:48;;;;;;;4.85;3.13;;;;;;;;;;3576478;40;20414;-70
2021/07/27 00:23:14;;;;;;;3.20;2.53;;;;;;;;;;3576791;40;20435;-69
2021/07/27 00:25:41;;;;;;;2.58;2.35;;;;;;;;;;3576420;40;20505;-70
2021/07/27 00:28:07;;;;;;;4.00;2.90;;;;;;;;;;3576147;40;20746;-70
2021/07/27 00:30:33;;;;;;;3.80;2.83;;;;;;;;;;3568309;40;20399;-69
2021/07/27 00:33:01;;;;;;;4.40;2.53;;;;;;;;;;3576973;40;20398;-70
2021/07/27 00:35:29;;;;;;;3.60;2.60;;;;;;;;;;3581686;40;20779;-70
2021/07/27 00:38:18;;;;;;;5.38;3.30;;;;;;;;;;3584087;40;20382;-70
2021/07/27 00:40:46;;;;;;;3.35;3.05;;;;;;;;;;3585261;40;20398;-70
2021/07/27 00:43:13;;;;;;;3.00;2.75;;;;;;;;;;3586346;40;20370;-70
2021/07/27 00:45:40;;;;;;;4.18;2.85;;;;;;;;;;3586294;40;20772;-70
2021/07/27 00:48:07;;;;;;;4.38;3.10;;;;;;;;;;3586508;40;20743;-70
2021/07/27 00:50:34;;;;;;;3.53;3.15;;;;;;;;;;3575803;40;20393;-69
2021/07/27 00:53:01;;;;;;;4.55;2.78;;;;;;;;;;3575805;40;20396;-70
2021/07/27 00:55:28;;;;;;;3.17;2.87;;;;;;;;;;3585121;40;20781;-70
2021/07/27 00:57:54;;;;;;;3.25;2.95;;;;;;;;;;3583449;40;20388;-70
2021/07/27 01:00:21;;;;;;;3.85;2.83;;;;;;;;;;3585534;40;20374;-69
2021/07/27 01:05:24;;;;;;;4.50;2.83;;;;;;;;;;3566799;40;20433;-73
2021/07/27 01:07:51;;;;;;;5.35;3.30;;;;;;;;;;3572554;40;20481;-74
2021/07/27 01:10:17;;;;;;;3.10;2.80;;;;;;;;;;3566868;40;20762;-72
2021/07/27 01:12:45;;;;;;;5.10;3.47;;;;;;;;;;3570157;40;20436;-72
2021/07/27 01:15:11;;;;;;;4.05;3.30;;;;;;;;;;3570615;40;20472;-73
2021/07/27 01:17:38;;;;;;;5.78;3.80;;;;;;;;;;3569506;40;20645;-72
2021/07/27 01:20:13;;;;;;;4.13;3.17;;;;;;;;;;3570884;40;20741;-72
2021/07/27 01:44:04;;;;;;;4.00;3.40;;;;;;;;;;3566301;40;20762;-73
2021/07/27 01:46:30;;;;;;;3.65;3.25;;;;;;;;;;3574010;40;20396;-73
2021/07/27 01:48:57;;;;;;;3.75;3.13;;;;;;;;;;3557724;40;20436;-72
2021/07/27 01:51:23;;;;;;;5.38;3.92;;;;;;;;;;3561431;40;20784;-73
2021/07/27 01:53:54;;;;;;;4.72;3.50;;;;;;;;;;3570080;40;20759;-72
2021/07/27 01:56:23;;;;;;;4.25;3.65;;;;;;;;;;3565549;40;20377;-73
2021/07/27 01:58:50;;;;;;;3.63;3.22;;;;;;;;;;3572858;40;20403;-73
2021/07/27 02:01:18;;;;;;;4.60;3.25;;;;;;;;;;3560438;40;20402;-74
2021/07/27 02:03:44;;;;;;;4.55;3.42;;;;;;;;;;3571810;40;20419;-72
2021/07/27 02:06:11;;;;;;;3.88;3.05;;;;;;;;;;3570395;40;20400;-72
2021/07/27 02:08:37;;;;;;;3.95;3.25;;;;;;;;;;3569326;40;20382;-74
2021/07/27 02:11:05;;;;;;;4.20;3.25;;;;;;;;;;3569287;40;20420;-72
2021/07/27 02:13:48;;;;;;;4.13;3.70;;;;;;;;;;3562834;40;20780;-72
2021/07/27 02:16:14;;;;;;;3.97;3.25;;;;;;;;;;3568867;40;20402;-72
2021/07/27 02:18:40;;;;;;;4.00;3.28;;;;;;;;;;3573931;40;20391;-72
2021/07/27 02:21:06;;;;;;;5.30;3.50;;;;;;;;;;3568851;40;20796;-71
2021/07/27 02:23:32;;;;;;;3.75;3.45;;;;;;;;;;3565935;40;20459;-72
2021/07/27 02:25:58;;;;;;;4.65;3.35;;;;;;;;;;3566879;40;20408;-72
2021/07/27 02:28:25;;;;;;;4.63;3.55;;;;;;;;;;3567513;40;20378;-72
2021/07/27 02:30:56;;;;;;;5.72;3.75;;;;;;;;;;3566184;40;20362;-72
2021/07/27 02:33:23;;;;;;;4.78;3.47;;;;;;;;;;3568697;40;20378;-68
2021/07/27 02:35:49;;;;;;;4.13;3.60;;;;;;;;;;3568395;40;20758;-70
2021/07/27 02:38:16;;;;;;;6.07;3.53;;;;;;;;;;3572363;40;20362;-70
2021/07/27 02:40:42;;;;;;;3.97;3.42;;;;;;;;;;3566105;40;20373;-70
2021/07/27 02:43:10;;;;;;;3.70;3.40;;;;;;;;;;3572028;40;20397;-70
2021/07/27 02:45:37;;;;;;;5.00;3.67;;;;;;;;;;3566171;40;20957;-71
2021/07/27 02:48:04;;;;;;;5.55;3.97;;;;;;;;;;3567107;40;20668;-70
2021/07/27 02:50:31;;;;;;;4.55;3.70;;;;;;;;;;3566184;40;20772;-69
2021/07/27 02:52:57;;;;;;;5.18;4.05;;;;;;;;;;3557343;40;20385;-70
2021/07/27 02:55:23;;;;;;;6.05;3.72;;;;;;;;;;3570071;40;20369;-69
2021/07/27 02:57:50;;;;;;;5.43;4.00;;;;;;;;;;3570699;40;20480;-70
2021/07/27 03:00:17;;;;;;;5.25;4.55;;;;;;;;;;3558627;40;20397;-70
2021/07/27 03:02:45;;;;;;;7.65;5.32;;;;;;;;;;3571293;40;20389;-70
2021/07/27 03:05:13;;;;;;;5.53;4.97;;;;;;;;;;3567638;40;20678;-71
2021/07/27 03:10:21;;;;;;;6.28;5.18;;;;;;;;;;3565230;40;20382;-71
2021/07/27 03:12:49;;;;;;;5.93;4.37;;;;;;;;;;3569645;40;20409;-72
2021/07/27 03:15:15;;;;;;;7.32;4.13;;;;;;;;;;3570283;40;20713;-70
2021/07/27 03:17:42;;;;;;;7.70;4.67;;;;;;;;;;3562156;40;20447;-71
2021/07/27 03:20:08;;;;;;;4.78;4.38;;;;;;;;;;3566397;40;20368;-71
2021/07/27 03:22:36;;;;;;;5.88;5.28;;;;;;;;;;3567891;40;20829;-70
2021/07/27 03:25:03;;;;;;;7.32;6.05;;;;;;;;;;3566271;40;20420;-71
2021/07/27 03:27:29;;;;;;;6.43;5.20;;;;;;;;;;3561437;40;20641;-71
2021/07/27 03:29:55;;;;;;;7.30;5.50;;;;;;;;;;3566924;40;20366;-70
2021/07/27 03:32:21;;;;;;;5.43;4.03;;;;;;;;;;3567316;40;20385;-71
2021/07/27 03:34:47;;;;;;;6.85;4.32;;;;;;;;;;3565784;40;20373;-70
2021/07/27 03:37:14;;;;;;;4.72;3.80;;;;;;;;;;3567884;40;20655;-70
2021/07/27 03:39:41;;;;;;;5.88;4.30;;;;;;;;;;3568813;40;20362;-71
2021/07/27 03:42:08;;;;;;;5.93;3.85;;;;;;;;;;3565136;40;20862;-70
2021/07/27 03:44:35;;;;;;;6.07;3.75;;;;;;;;;;3558700;40;20457;-70
2021/07/27 03:47:07;;;;;;;4.07;3.67;;;;;;;;;;3566169;40;20385;-70
2021/07/27 03:49:33;;;;;;;5.55;4.22;;;;;;;;;;3567317;40;20376;-70
2021/07/27 03:52:00;;;;;;;4.95;4.10;;;;;;;;;;3565121;40;20844;-70
2021/07/27 03:54:26;;;;;;;7.18;3.80;;;;;;;;;;3569518;40;20757;-71
2021/07/27 03:56:54;;;;;;;4.97;4.15;;;;;;;;;;3567788;40;20362;-70
2021/07/27 03:59:20;;;;;;;4.95;3.70;;;;;;;;;;3565967;40;20708;-69
2021/07/27 04:01:46;;;;;;;6.45;4.28;;;;;;;;;;3568641;40;20814;-71
2021/07/27 04:04:13;;;;;;;5.22;4.40;;;;;;;;;;3557620;40;20428;-70
2021/07/27 04:06:39;;;;;;;3.88;3.58;;;;;;;;;;3567714;40;20378;-70
2021/07/27 04:09:05;;;;;;;5.82;3.88;;;;;;;;;;3567693;40;20433;-71
2021/07/27 04:11:31;;;;;;;4.63;4.03;;;;;;;;;;3568785;40;20384;-70
2021/07/27 04:13:59;;;;;;;4.83;4.27;;;;;;;;;;3570245;40;20378;-69
2021/07/27 04:16:25;;;;;;;5.25;3.85;;;;;;;;;;3559907;40;20805;-70
2021/07/27 04:18:53;;;;;;;4.53;3.80;;;;;;;;;;3563267;40;21335;-70
2021/07/27 04:21:19;;;;;;;6.32;4.20;;;;;;;;;;3568424;40;20427;-69
2021/07/27 04:23:45;;;;;;;4.63;4.03;;;;;;;;;;3558138;40;20413;-69
2021/07/27 04:26:11;;;;;;;5.30;4.13;;;;;;;;;;3557913;40;20810;-69
2021/07/27 04:28:37;;;;;;;5.80;4.70;;;;;;;;;;3558010;40;20655;-70
2021/07/27 04:31:05;;;;;;;6.35;3.97;;;;;;;;;;3570675;40;20782;-70
2021/07/27 04:33:38;;;;;;;4.80;4.15;;;;;;;;;;3566992;40;20452;-70
2021/07/27 04:36:04;;;;;;;5.30;3.92;;;;;;;;;;3557132;40;20369;-70
2021/07/27 04:38:31;;;;;;;5.22;3.85;;;;;;;;;;3566430;40;20374;-70
2021/07/27 04:40:57;;;;;;;4.45;3.85;;;;;;;;;;3558337;40;20739;-70
2021/07/27 04:43:23;;;;;;;5.75;4.18;;;;;;;;;;3567169;40;20460;-69
2021/07/27 04:45:49;;;;;;;6.43;5.07;;;;;;;;;;3566694;40;20406;-70
2021/07/27 04:48:17;;;;;;;5.88;4.43;;;;;;;;;;3570345;40;20370;-70
2021/07/27 04:50:45;;;;;;;4.95;4.30;;;;;;;;;;3567903;40;20403;-70
2021/07/27 04:53:11;;;;;;;5.63;4.05;;;;;;;;;;3571528;40;20377;-70
2021/07/27 04:55:37;;;;;;;4.97;4.43;;;;;;;;;;3567508;40;20382;-70
2021/07/27 04:58:03;;;;;;;5.00;4.50;;;;;;;;;;3556288;40;20483;-70
2021/07/27 05:00:29;;;;;;;5.75;4.60;;;;;;;;;;3557730;40;20401;-70
2021/07/27 05:02:57;;;;;;;6.57;4.97;;;;;;;;;;3567006;40;20360;-70
2021/07/27 05:05:25;;;;;;;5.80;4.60;;;;;;;;;;3571620;40;20412;-71
2021/07/27 05:07:51;;;;;;;5.22;4.70;;;;;;;;;;3570177;40;20589;-69
2021/07/27 05:10:18;;;;;;;5.38;4.75;;;;;;;;;;3567669;40;20375;-70
2021/07/27 05:12:44;;;;;;;6.10;4.80;;;;;;;;;;3569240;40;20451;-70
2021/07/27 05:15:10;;;;;;;7.35;4.63;;;;;;;;;;3558654;40;20394;-71
2021/07/27 05:17:37;;;;;;;6.63;4.90;;;;;;;;;;3569791;40;20398;-70
2021/07/27 05:20:03;;;;;;;5.15;4.65;;;;;;;;;;3573716;40;20404;-70
2021/07/27 05:22:31;;;;;;;5.65;4.88;;;;;;;;;;3567871;40;20396;-71
2021/07/27 05:24:57;;;;;;;6.22;4.70;;;;;;;;;;3572006;40;20388;-71
2021/07/27 05:27:24;;;;;;;4.97;4.35;;;;;;;;;;3566695;40;20389;-70
2021/07/27 05:29:50;;;;;;;6.38;4.65;;;;;;;;;;3570925;40;20450;-69
2021/07/27 05:32:17;;;;;;;6.13;5.05;;;;;;;;;;3569154;40;20383;-70
2021/07/27 05:34:43;;;;;;;6.50;5.88;;;;;;;;;;3570919;40;20419;-70
2021/07/27 05:37:10;;;;;;;6.78;4.65;;;;;;;;;;3570906;40;20368;-71
2021/07/27 05:39:37;;;;;;;5.30;4.10;;;;;;;;;;3575424;40;20372;-70
2021/07/27 05:42:04;;;;;;;6.15;4.40;;;;;;;;;;3563819;40;20416;-70
2021/07/27 05:44:30;;;;;;;4.72;4.30;;;;;;;;;;3567524;40;20638;-69
2021/07/27 05:46:56;;;;;;;5.50;4.43;;;;;;;;;;3557430;40;20440;-70
2021/07/27 05:49:24;;;;;;;5.30;4.55;;;;;;;;;;3567258;40;20382;-69
2021/07/27 05:51:51;;;;;;;6.63;4.43;;;;;;;;;;3572704;40;20439;-70
2021/07/27 05:54:21;;;;;;;5.10;4.60;;;;;;;;;;3572441;40;20515;-70
2021/07/27 05:56:48;;;;;;;6.38;4.57;;;;;;;;;;3570126;40;20381;-69
2021/07/27 05:59:15;;;;;;;5.63;4.32;;;;;;;;;;3569709;40;20431;-70
2021/07/27 06:01:41;;;;;;;5.03;3.88;;;;;;;;;;3561704;40;20427;-70
2021/07/27 06:04:07;;;;;;;4.82;4.32;;;;;;;;;;3569684;40;20413;-69
2021/07/27 06:06:33;;;;;;;5.05;4.40;;;;;;;;;;3573575;40;20453;-69
2021/07/27 06:09:00;;;;;;;5.75;4.10;;;;;;;;;;3562568;40;20481;-69
2021/07/27 06:11:26;;;;;;;5.32;3.90;;;;;;;;;;3569530;40;20378;-70
2021/07/27 06:13:54;;;;;;;5.22;3.83;;;;;;;;;;3571037;40;20380;-70
2021/07/27 06:16:20;;;;;;;5.30;3.80;;;;;;;;;;3571268;40;20384;-70
2021/07/27 06:18:46;;;;;;;5.35;4.03;;;;;;;;;;3560991;40;20392;-70
2021/07/27 06:21:12;;;;;;;5.72;4.07;;;;;;;;;;3569524;40;20385;-69
2021/07/27 06:23:38;;;;;;;6.25;3.95;;;;;;;;;;3568661;40;20416;-70
2021/07/27 06:26:05;;;;;;;4.07;3.63;;;;;;;;;;3571297;40;20380;-70
2021/07/27 06:28:31;;;;;;;4.93;3.70;;;;;;;;;;3567420;40;20710;-69
2021/07/27 06:30:59;;;;;;;4.30;3.72;;;;;;;;;;3570286;40;20360;-70
2021/07/27 06:33:25;;;;;;;4.85;3.72;;;;;;;;;;3571670;40;20811;-69
2021/07/27 06:35:56;;;;;;;7.70;4.07;;;;;;;;;;3573250;40;20767;-69
2021/07/27 06:38:23;;;;;;;7.50;3.97;;;;;;;;;;3571080;40;20388;-69
2021/07/27 06:40:50;;;;;;;6.90;3.90;;;;;;;;;;3570808;40;20394;-70
2021/07/27 06:43:16;;;;;;;5.13;3.70;;;;;;;;;;3573172;40;20388;-69
2021/07/27 06:45:42;;;;;;;4.93;3.40;;;;;;;;;;3573514;40;20738;-70
2021/07/27 06:48:10;;;;;;;6.20;3.73;;;;;;;;;;3567835;40;20766;-69
2021/07/27 06:50:37;;;;;;;4.47;3.33;;;;;;;;;;3574028;40;20389;-69
2021/07/27 06:53:03;;;;;;;3.65;3.35;;;;;;;;;;3559770;40;20395;-70
2021/07/27 06:55:29;;;;;;;5.63;3.28;;;;;;;;;;3569700;40;20758;-70
2021/07/27 06:57:55;;;;;;;6.13;3.73;;;;;;;;;;3567928;40;20362;-69
2021/07/27 07:00:21;;;;;;;4.97;3.58;;;;;;;;;;3550516;40;20724;-70
2021/07/27 07:02:48;;;;;;;4.63;3.50;;;;;;;;;;3573422;40;20385;-70
2021/07/27 07:05:15;;;;;;;4.57;3.63;;;;;;;;;;3571954;40;20411;-70
2021/07/27 07:07:41;;;;;;;6.93;3.58;;;;;;;;;;3558806;40;20395;-70
2021/07/27 07:10:08;;;;;;;5.87;3.67;;;;;;;;;;3571829;40;20445;-70
2021/07/27 07:12:34;;;;;;;3.97;3.65;;;;;;;;;;3573752;40;20488;-70
2021/07/27 07:15:01;;;;;;;3.40;3.03;;;;;;;;;;3572710;40;20544;-70
2021/07/27 07:17:27;;;;;;;4.23;3.27;;;;;;;;;;3567818;40;20401;-70
2021/07/27 07:19:53;;;;;;;5.05;3.50;;;;;;;;;;3558401;40;20475;-69
2021/07/27 07:22:21;;;;;;;4.28;3.50;;;;;;;;;;3568404;40;20385;-70
2021/07/27 07:24:47;;;;;;;5.82;3.58;;;;;;;;;;3570984;40;20912;-69
2021/07/27 07:27:14;;;;;;;5.13;3.42;;;;;;;;;;3566322;40;20386;-70
2021/07/27 07:29:40;;;;;;;3.90;3.50;;;;;;;;;;3574115;40;20372;-70
2021/07/27 07:32:06;;;;;;;4.53;3.30;;;;;;;;;;3567119;40;20767;-70
2021/07/27 07:34:32;;;;;;;5.97;3.67;;;;;;;;;;3571840;40;20373;-69
2021/07/27 07:37:00;;;;;;;3.92;3.38;;;;;;;;;;3572619;40;20379;-69
2021/07/27 07:39:29;;;;;;;6.05;4.00;;;;;;;;;;3575330;40;20376;-69
2021/07/27 07:41:55;;;;;;;4.53;3.35;;;;;;;;;;3563041;40;20404;-70
2021/07/27 07:44:22;;;;;;;4.57;3.53;;;;;;;;;;3573315;40;20388;-70
2021/07/27 07:46:48;;;;;;;3.78;3.08;;;;;;;;;;3571094;40;20368;-69
2021/07/27 07:49:14;;;;;;;5.38;3.55;;;;;;;;;;3571307;40;20358;-71
2021/07/27 07:51:46;;;;;;;4.38;3.25;;;;;;;;;;3569117;40;20410;-70
2021/07/27 07:54:12;;;;;;;3.35;3.03;;;;;;;;;;3570843;40;20516;-70
2021/07/27 07:56:40;;;;;;;3.65;3.35;;;;;;;;;;3568808;40;20749;-70
2021/07/27 07:59:06;;;;;;;3.78;3.47;;;;;;;;;;3569608;40;20384;-70
2021/07/27 08:01:32;;;;;;;4.18;3.25;;;;;;;;;;3567616;40;20388;-70
2021/07/27 08:03:58;;;;;;;4.95;3.38;;;;;;;;;;3567262;40;20409;-70
2021/07/27 08:06:25;;;;;;;5.50;3.30;;;;;;;;;;3567369;40;20378;-70
2021/07/27 08:08:52;;;;;;;5.57;3.87;;;;;;;;;;3567529;40;20370;-70
2021/07/27 08:11:18;;;;;;;5.63;3.30;;;;;;;;;;3568250;40;20420;-69
2021/07/27 08:13:45;;;;;;;4.80;3.65;;;;;;;;;;3567283;40;20365;-70
2021/07/27 08:16:11;;;;;;;4.95;4.00;;;;;;;;;;3568839;40;20458;-70
2021/07/27 08:18:38;;;;;;;4.55;3.63;;;;;;;;;;3574841;40;20681;-70
2021/07/27 08:21:04;;;;;;;4.22;3.83;;;;;;;;;;3570668;40;20416;-70
2021/07/27 08:23:31;;;;;;;4.53;3.63;;;;;;;;;;3559992;40;20511;-69
2021/07/27 08:25:57;;;;;;;4.75;3.92;;;;;;;;;;3566993;40;20388;-70
2021/07/27 08:28:23;;;;;;;3.90;3.60;;;;;;;;;;3566900;40;20377;-69
2021/07/27 08:30:51;;;;;;;6.82;5.20;;;;;;;;;;3566686;40;20394;-69
2021/07/27 08:33:17;;;;;;;6.05;4.75;;;;;;;;;;3567006;40;20382;-69
2021/07/27 08:35:43;;;;;;;5.75;5.05;;;;;;;;;;3557342;40;20675;-69
2021/07/27 08:38:09;;;;;;;7.80;6.03;;;;;;;;;;3562391;40;20427;-70
2021/07/27 08:40:38;;;;;;;11.45;8.25;;;;;;;;;;3565605;40;20369;-69
2021/07/27 08:43:05;;;;;;;11.55;8.38;;;;;;;;;;3565598;40;20842;-70
2021/07/27 08:45:32;;;;;;;10.57;8.23;;;;;;;;;;3563833;40;20409;-70
2021/07/27 08:48:00;;;;;;;9.73;7.82;;;;;;;;;;3567685;40;20386;-70
2021/07/27 08:50:27;;;;;;;10.98;8.30;;;;;;;;;;3570640;40;20425;-70
2021/07/27 08:52:53;;;;;;;12.77;8.87;;;;;;;;;;3566405;40;20421;-69
2021/07/27 08:55:19;;;;;;;14.77;9.95;;;;;;;;;;3569361;40;20422;-69
2021/07/27 08:57:47;;;;;;;12.32;9.32;;;;;;;;;;3567942;40;20369;-69
2021/07/27 09:00:14;;;;;;;14.00;9.95;;;;;;;;;;3570318;40;20768;-70
2021/07/27 09:02:40;;;;;;;14.45;9.50;;;;;;;;;;3568055;40;20747;-69
2021/07/27 09:05:10;;;;;;;12.30;9.52;;;;;;;;;;3562797;40;20465;-69
2021/07/27 09:07:36;;;;;;;11.63;8.95;;;;;;;;;;3566394;40;20385;-69
2021/07/27 09:10:12;;;;;;;15.23;9.70;;;;;;;;;;3565996;40;20647;-69
2021/07/27 09:12:39;;;;;;;12.30;9.18;;;;;;;;;;3567560;40;20385;-69
2021/07/27 09:15:05;;;;;;;11.77;9.17;;;;;;;;;;3566534;40;20373;-69
2021/07/27 09:17:32;;;;;;;13.32;9.77;;;;;;;;;;3566532;40;20642;-69
2021/07/27 09:19:58;;;;;;;15.55;11.27;;;;;;;;;;3567258;40;20370;-70
2021/07/27 09:22:26;;;;;;;12.88;9.80;;;;;;;;;;3554948;40;20407;-70
2021/07/27 09:24:52;;;;;;;14.35;10.05;;;;;;;;;;3568960;40;20389;-69
2021/07/27 09:27:27;;;;;;;13.07;9.13;;;;;;;;;;3566313;40;20386;-70
2021/07/27 09:29:53;;;;;;;13.18;9.57;;;;;;;;;;3566536;40;20806;-70
2021/07/27 09:32:20;;;;;;;11.30;9.00;;;;;;;;;;3555986;40;20410;-70
2021/07/27 09:34:47;;;;;;;10.75;8.85;;;;;;;;;;3566480;40;20771;-70
2021/07/27 09:37:13;;;;;;;15.88;11.40;;;;;;;;;;3557446;40;20540;-69
2021/07/27 09:39:41;;;;;;;16.47;11.70;;;;;;;;;;3565127;40;20414;-69
2021/07/27 09:42:08;;;;;;;18.88;12.27;;;;;;;;;;3563227;40;20382;-70
2021/07/27 09:44:35;;;;;;;15.82;11.13;;;;;;;;;;3566440;40;20381;-69
2021/07/27 09:47:01;;;;;;;15.73;12.23;;;;;;;;;;3564018;40;20384;-69
2021/07/27 09:49:28;;;;;;;14.52;11.25;;;;;;;;;;3566280;40;20803;-70
2021/07/27 09:51:58;;;;;;;17.63;11.45;;;;;;;;;;3555855;40;20445;-70
2021/07/27 09:54:24;;;;;;;15.35;10.57;;;;;;;;;;3564806;40;20384;-70
2021/07/27 09:56:52;;;;;;;11.43;9.88;;;;;;;;;;3557370;40;20365;-70
2021/07/27 09:59:19;;;;;;;15.20;10.10;;;;;;;;;;3566317;40;20492;-70
2021/07/27 10:01:48;;;;;;;14.65;10.90;;;;;;;;;;3566872;40;20358;-69
2021/07/27 10:04:19;;;;;;;15.05;10.82;;;;;;;;;;3560841;40;20507;-69
2021/07/27 10:06:49;;;;;;;15.18;10.10;;;;;;;;;;3567610;40;20771;-70
2021/07/27 10:09:22;;;;;;;12.15;9.32;;;;;;;;;;3566799;40;20383;-69
2021/07/27 10:11:49;;;;;;;14.30;9.90;;;;;;;;;;3567877;40;20667;-70
2021/07/27 10:14:17;;;;;;;14.52;9.55;;;;;;;;;;3567795;40;20747;-70
2021/07/27 10:16:43;;;;;;;14.60;9.57;;;;;;;;;;3571634;40;20385;-70
2021/07/27 10:19:13;;;;;;;11.20;7.75;;;;;;;;;;3567442;40;20390;-69
2021/07/27 10:21:40;;;;;;;12.40;8.32;;;;;;;;;;3558906;40;20782;-70
2021/07/27 10:24:13;;;;;;;9.63;7.47;;;;;;;;;;3575582;40;20508;-70
2021/07/27 10:26:40;;;;;;;8.73;6.75;;;;;;;;;;3571657;40;20477;-70
2021/07/27 10:29:06;;;;;;;9.32;6.75;;;;;;;;;;3556697;40;20644;-69
2021/07/27 10:31:34;;;;;;;9.55;5.82;;;;;;;;;;3567096;40;20386;-69
2021/07/27 10:34:02;;;;;;;7.97;5.97;;;;;;;;;;3566539;40;20393;-69
2021/07/27 10:36:31;;;;;;;7.75;5.97;;;;;;;;;;3557772;40;20410;-70
2021/07/27 10:39:04;;;;;;;8.43;5.82;;;;;;;;;;3567367;40;20396;-69
2021/07/27 10:41:34;;;;;;;7.78;5.90;;;;;;;;;;3564596;40;20357;-69
2021/07/27 10:44:04;;;;;;;8.98;5.63;;;;;;;;;;3567510;40;20634;-70
2021/07/27 10:46:30;;;;;;;9.38;6.18;;;;;;;;;;3567083;40;20382;-70
2021/07/27 10:48:58;;;;;;;8.00;6.37;;;;;;;;;;3558392;40;20417;-70
2021/07/27 10:51:25;;;;;;;9.35;6.65;;;;;;;;;;3568017;40;20663;-70
2021/07/27 10:53:52;;;;;;;8.50;6.47;;;;;;;;;;3567107;40;20378;-70
2021/07/27 10:56:20;;;;;;;10.40;7.05;;;;;;;;;;3567154;40;20483;-70
2021/07/27 10:58:47;;;;;;;9.05;6.47;;;;;;;;;;3567117;40;20390;-70
2021/07/27 11:01:13;;;;;;;8.00;6.20;;;;;;;;;;3565801;40;20370;-70
2021/07/27 11:03:41;;;;;;;7.95;6.47;;;;;;;;;;3566718;40;20921;-70
2021/07/27 11:06:08;;;;;;;7.95;6.53;;;;;;;;;;3566170;40;20392;-69
2021/07/27 11:08:34;;;;;;;6.88;5.68;;;;;;;;;;3567208;40;20479;-69
2021/07/27 11:11:04;;;;;;;8.48;5.65;;;;;;;;;;3566972;40;20459;-69
2021/07/27 11:13:30;;;;;;;7.80;5.32;;;;;;;;;;3565930;40;20437;-70
2021/07/27 11:16:00;;;;;;;7.43;6.20;;;;;;;;;;3566452;40;20382;-70
2021/07/27 11:18:27;;;;;;;8.07;6.07;;;;;;;;;;3569770;40;20386;-70
2021/07/27 11:20:54;;;;;;;9.27;5.95;;;;;;;;;;3569579;40;20496;-69
2021/07/27 11:23:21;;;;;;;9.50;5.97;;;;;;;;;;3567446;40;20714;-70
2021/07/27 11:25:52;;;;;;;10.75;6.60;;;;;;;;;;3567947;40;20530;-70
2021/07/27 11:28:18;;;;;;;9.60;6.47;;;;;;;;;;3557021;40;20383;-69
2021/07/27 11:30:45;;;;;;;8.32;6.57;;;;;;;;;;3567245;40;20460;-69
2021/07/27 11:33:11;;;;;;;10.45;6.18;;;;;;;;;;3561262;40;20437;-69
2021/07/27 11:35:42;;;;;;;7.72;5.50;;;;;;;;;;3540661;40;20393;-69
2021/07/27 11:38:09;;;;;;;7.90;6.07;;;;;;;;;;3565782;40;20442;-69
2021/07/27 11:40:36;;;;;;;10.23;6.28;;;;;;;;;;3565657;40;20393;-69
2021/07/27 11:43:06;;;;;;;10.88;5.82;;;;;;;;;;3568529;40;20696;-69
2021/07/27 11:45:33;;;;;;;8.80;6.40;;;;;;;;;;3564445;40;20677;-69
2021/07/27 11:47:59;;;;;;;7.95;5.53;;;;;;;;;;3570483;40;20710;-69
2021/07/27 11:50:26;;;;;;;7.15;5.22;;;;;;;;;;3558251;40;20710;-70
2021/07/27 11:52:55;;;;;;;8.15;5.40;;;;;;;;;;3568093;40;20386;-69
2021/07/27 11:55:27;;;;;;;8.70;6.18;;;;;;;;;;3566071;40;20467;-70
2021/07/27 11:57:55;;;;;;;9.48;5.32;;;;;;;;;;3564909;40;20388;-70
2021/07/27 12:00:21;;;;;;;7.82;5.55;;;;;;;;;;3569149;40;20382;-70
2021/07/27 12:02:48;;;;;;;7.70;5.90;;;;;;;;;;3567390;40;20389;-69
2021/07/27 12:05:14;;;;;;;10.43;5.80;;;;;;;;;;3567191;40;20402;-70
2021/07/27 12:07:40;;;;;;;10.88;5.70;;;;;;;;;;3566064;40;20377;-69
2021/07/27 12:10:07;;;;;;;7.80;5.65;;;;;;;;;;3570909;40;20366;-70
2021/07/27 12:12:33;;;;;;;10.48;6.75;;;;;;;;;;3569989;40;20433;-70
2021/07/27 12:15:01;;;;;;;10.07;7.05;;;;;;;;;;3570024;40;20965;-68
2021/07/27 12:17:27;;;;;;;11.80;7.47;;;;;;;;;;3568834;40;20651;-69
2021/07/27 12:19:53;;;;;;;9.00;6.15;;;;;;;;;;3574418;40;20386;-69
2021/07/27 12:22:19;;;;;;;11.23;8.30;;;;;;;;;;3560705;40;20400;-69
2021/07/27 12:24:46;;;;;;;12.98;7.50;;;;;;;;;;3569840;40;20379;-69
2021/07/27 12:27:13;;;;;;;10.95;7.28;;;;;;;;;;3566856;40;20444;-69
2021/07/27 12:29:39;;;;;;;12.77;7.47;;;;;;;;;;3571403;40;20644;-69
2021/07/27 12:32:07;;;;;;;10.48;6.72;;;;;;;;;;3557296;40;20485;-69
2021/07/27 12:34:33;;;;;;;10.88;7.68;;;;;;;;;;3568847;40;20452;-70
2021/07/27 12:36:59;;;;;;;8.73;6.60;;;;;;;;;;3560301;40;20487;-69
2021/07/27 12:39:26;;;;;;;8.93;6.65;;;;;;;;;;3568650;40;20795;-70
2021/07/27 12:41:52;;;;;;;10.05;6.47;;;;;;;;;;3570372;40;20361;-70
2021/07/27 12:44:19;;;;;;;9.18;6.45;;;;;;;;;;3559022;40;20809;-70
2021/07/27 12:46:45;;;;;;;13.38;7.20;;;;;;;;;;3566968;40;20384;-69
2021/07/27 12:49:14;;;;;;;9.02;6.60;;;;;;;;;;3557398;40;20753;-70
2021/07/27 12:51:40;;;;;;;8.50;6.43;;;;;;;;;;3558627;40;20409;-70
2021/07/27 12:54:06;;;;;;;10.73;6.43;;;;;;;;;;3566776;40;20378;-69
2021/07/27 12:56:34;;;;;;;10.98;6.93;;;;;;;;;;3566666;40;20468;-70
2021/07/27 12:58:59;;;;;;;11.80;6.95;;;25.30;99.90;;;;;;3565081;40;20369;-70
2021/07/27 13:01:25;;;;;;;9.87;6.40;;;24.90;99.90;;;;;;3559127;40;20409;-70
2021/07/27 13:03:51;;;;;;;11.10;7.28;;;24.60;99.90;;;;;;3567992;40;20687;-70
2021/07/27 13:06:19;;;;;;;8.82;6.22;;;;;;;;;;3566016;40;20428;-70
2021/07/27 13:08:45;;;;;;;9.43;6.87;;;;;;;;;;3569432;40;20475;-70
2021/07/27 13:11:12;;;;;;;8.70;6.47;;;;;;;;;;3568564;40;20492;-70
2021/07/27 13:13:38;;;;;;;8.88;6.95;;;;;;;;;;3566739;40;20466;-69
2021/07/27 13:16:05;;;;;;;11.90;7.00;;;;;;;;;;3557397;40;20390;-69
2021/07/27 13:18:33;;;;;;;9.82;6.40;;;;;;;;;;3566686;40;20861;-70
2021/07/27 13:20:59;;;;;;;8.07;5.32;;;;;;;;;;3566946;40;20382;-69
2021/07/27 13:23:27;;;;;;;9.75;6.35;;;;;;;;;;3567105;40;20381;-71
2021/07/27 13:25:53;;;;;;;8.68;5.80;;;;;;;;;;3566136;40;20404;-69
2021/07/27 13:28:19;;;;;;;12.23;7.00;;;;;;;;;;3566818;40;20374;-69
2021/07/27 13:30:45;;;;;;;9.70;7.03;;;;;;;;;;3566217;40;20467;-69
2021/07/27 13:33:11;;;;;;;8.35;5.88;;;24.50;99.90;;;;;;3566338;40;20447;-71
2021/07/27 13:35:37;;;;;;;11.65;7.90;;;;;;;;;;3557144;40;20405;-70
2021/07/27 13:38:04;;;;;;;8.88;6.20;;;;;;;;;;3566457;40;20388;-70
2021/07/27 13:40:31;;;;;;;9.90;6.50;;;;;;;;;;3565144;40;20381;-70
2021/07/27 13:42:57;;;;;;;7.97;5.90;;;;;;;;;;3564449;40;20460;-70
2021/07/27 13:45:25;;;;;;;9.18;5.78;;;;;;;;;;3563425;40;20444;-69
2021/07/27 13:47:51;;;;;;;8.70;5.80;;;;;;;;;;3566553;40;20389;-70
2021/07/27 13:50:17;;;;;;;8.67;6.80;;;;;;;;;;3566485;40;20365;-70
2021/07/27 13:52:43;;;;;;;9.67;6.93;;;;;;;;;;3567925;40;20421;-69
2021/07/27 13:55:10;;;;;;;9.70;7.30;;;;;;;;;;3565532;40;20374;-70
2021/07/27 13:57:37;;;;;;;10.02;7.63;;;;;;;;;;3557163;40;20384;-70
2021/07/27 14:00:04;;;;;;;11.35;8.38;;;;;;;;;;3556866;40;20408;-70
2021/07/27 14:02:30;;;;;;;12.27;9.00;;;;;;;;;;3567134;40;20409;-69
2021/07/27 14:04:57;;;;;;;13.53;9.43;;;;;;;;;;3556667;40;20410;-71
2021/07/27 14:07:23;;;;;;;14.60;10.40;;;;;;;;;;3566550;40;20390;-71
2021/07/27 14:09:49;;;;;;;13.80;10.00;;;;;;;;;;3567215;40;20370;-70
2021/07/27 14:12:15;;;;;;;14.48;10.43;;;;;;;;;;3558256;40;20401;-69
2021/07/27 14:14:43;;;;;;;13.43;10.48;;;25.10;99.90;;;;;;3556838;40;20401;-69
2021/07/27 14:17:08;;;;;;;15.65;9.93;;;23.80;99.90;;;;;;3566455;40;20404;-70
2021/07/27 14:19:36;;;;;;;11.25;9.27;;;;;;;;;;3566166;40;20471;-70
2021/07/27 14:22:03;;;;;;;17.35;10.65;;;;;;;;;;3566065;40;20390;-69
2021/07/27 14:24:29;;;;;;;14.70;9.97;;;;;;;;;;3567481;40;20389;-70
2021/07/27 14:26:55;;;;;;;13.90;10.20;;;;;;;;;;3566154;40;20398;-70
2021/07/27 14:29:21;;;;;;;11.30;9.37;;;;;;;;;;3566722;40;20744;-69
2021/07/27 14:31:49;;;;;;;9.53;7.90;;;;;;;;;;3566167;40;20366;-70
2021/07/27 14:34:15;;;;;;;9.95;8.70;;;;;;;;;;3566168;40;20373;-70
2021/07/27 14:36:41;;;;;;;7.25;6.55;;;;;;;;;;3560006;40;20385;-70
2021/07/27 14:39:07;;;;;;;10.27;7.53;;;;;;;;;;3560633;40;20386;-70
2021/07/27 14:41:33;;;;;;;10.15;8.02;;;23.70;99.90;;;;;;3560032;40;20417;-70
2021/07/27 14:44:02;;;;;;;10.27;7.25;;;;;;;;;;3559745;40;20399;-69
2021/07/27 14:46:28;;;;;;;11.00;7.80;;;;;;;;;;3560509;40;20491;-70
2021/07/27 14:48:55;;;;;;;9.00;7.72;;;;;;;;;;3561193;40;20378;-70
2021/07/27 14:51:21;;;;;;;11.10;8.00;;;;;;;;;;3561963;40;20390;-70
2021/07/27 14:53:47;;;;;;;9.57;7.33;;;25.00;99.90;;;;;;3562579;40;20390;-69
2021/07/27 14:56:14;;;;;;;7.95;6.47;;;;;;;;;;3563580;40;21350;-70
2021/07/27 14:58:40;;;;;;;10.52;7.40;;;;;;;;;;3561545;40;20749;-70
2021/07/27 15:01:06;;;;;;;8.25;6.68;;;25.70;99.90;;;;;;3556776;40;20413;-70